sensor_id;sensor_type;location;lat;lon;timestamp;P1;durP1;ratioP1;P2;durP2;ratioP2
2998;SDS011;1509;51.964;7.628;2023-07-31T00:00:05;7.67;;;6.40;;
2998;SDS011;1509;51.964;7.628;2023-07-31T00:02:33;9.13;;;7.17;;
2998;SDS011;1509;51.964;7.628;2023-07-31T00:04:59;7.00;;;5.73;;
2998;SDS011;1509;51.964;7.628;2023-07-31T00:07:25;8.17;;;6.03;;
2998;SDS011;1509;51.964;7.628;2023-07-31T00:09:51;8.23;;;6.60;;
2998;SDS011;1509;51.964;7.628;2023-07-31T00:12:18;6.47;;;5.40;;
2998;SDS011;1509;51.964;7.628;2023-07-31T00:14:44;7.40;;;6.20;;
2998;SDS011;1509;51.964;7.628;2023-07-31T00:17:10;6.43;;;5.30;;
2998;SDS011;1509;51.964;7.628;2023-07-31T00:19:36;6.57;;;3.67;;
2998;SDS011;1509;51.964;7.628;2023-07-31T00:22:02;4.93;;;3.67;;
2998;SDS011;1509;51.964;7.628;2023-07-31T00:24:27;4.80;;;3.10;;
2998;SDS011;1509;51.964;7.628;2023-07-31T00:26:53;3.90;;;2.60;;
2998;SDS011;1509;51.964;7.628;2023-07-31T00:29:18;2.60;;;1.87;;
2998;SDS011;1509;51.964;7.628;2023-07-31T00:31:44;3.30;;;2.50;;
2998;SDS011;1509;51.964;7.628;2023-07-31T00:34:10;3.47;;;2.20;;
2998;SDS011;1509;51.964;7.628;2023-07-31T00:36:35;4.00;;;2.40;;
2998;SDS011;1509;51.964;7.628;2023-07-31T00:39:01;3.07;;;2.20;;
2998;SDS011;1509;51.964;7.628;2023-07-31T00:41:26;3.37;;;2.10;;
2998;SDS011;1509;51.964;7.628;2023-07-31T00:43:52;4.50;;;2.27;;
2998;SDS011;1509;51.964;7.628;2023-07-31T00:46:18;4.00;;;2.20;;
2998;SDS011;1509;51.964;7.628;2023-07-31T00:48:43;2.70;;;1.80;;
2998;SDS011;1509;51.964;7.628;2023-07-31T00:51:10;2.90;;;1.87;;
2998;SDS011;1509;51.964;7.628;2023-07-31T00:53:36;4.10;;;2.30;;
2998;SDS011;1509;51.964;7.628;2023-07-31T00:56:02;3.23;;;1.90;;
2998;SDS011;1509;51.964;7.628;2023-07-31T00:58:28;2.90;;;1.90;;
2998;SDS011;1509;51.964;7.628;2023-07-31T01:00:54;2.37;;;1.70;;
2998;SDS011;1509;51.964;7.628;2023-07-31T01:03:20;3.07;;;1.37;;
2998;SDS011;1509;51.964;7.628;2023-07-31T01:08:24;2.50;;;1.70;;
2998;SDS011;1509;51.964;7.628;2023-07-31T01:11:07;2.13;;;1.60;;
2998;SDS011;1509;51.964;7.628;2023-07-31T01:13:42;3.27;;;2.00;;
2998;SDS011;1509;51.964;7.628;2023-07-31T01:16:09;2.07;;;1.50;;
2998;SDS011;1509;51.964;7.628;2023-07-31T01:18:34;2.43;;;1.60;;
2998;SDS011;1509;51.964;7.628;2023-07-31T01:26:36;1.77;;;1.47;;
2998;SDS011;1509;51.964;7.628;2023-07-31T01:29:10;2.37;;;1.57;;
2998;SDS011;1509;51.964;7.628;2023-07-31T01:31:43;4.83;;;1.53;;
2998;SDS011;1509;51.964;7.628;2023-07-31T01:34:13;2.50;;;1.53;;
2998;SDS011;1509;51.964;7.628;2023-07-31T01:36:41;3.60;;;1.83;;
2998;SDS011;1509;51.964;7.628;2023-07-31T01:39:07;2.33;;;1.53;;
2998;SDS011;1509;51.964;7.628;2023-07-31T01:41:33;3.10;;;1.90;;
2998;SDS011;1509;51.964;7.628;2023-07-31T01:43:58;3.30;;;1.67;;
2998;SDS011;1509;51.964;7.628;2023-07-31T01:46:24;2.67;;;1.77;;
2998;SDS011;1509;51.964;7.628;2023-07-31T01:48:49;3.70;;;1.40;;
2998;SDS011;1509;51.964;7.628;2023-07-31T01:51:15;2.13;;;1.57;;
2998;SDS011;1509;51.964;7.628;2023-07-31T01:53:41;2.37;;;1.50;;
2998;SDS011;1509;51.964;7.628;2023-07-31T01:56:06;1.87;;;1.40;;
2998;SDS011;1509;51.964;7.628;2023-07-31T01:58:32;3.83;;;1.50;;
2998;SDS011;1509;51.964;7.628;2023-07-31T02:00:57;3.40;;;1.40;;
2998;SDS011;1509;51.964;7.628;2023-07-31T02:03:23;3.10;;;1.60;;
2998;SDS011;1509;51.964;7.628;2023-07-31T02:05:49;1.80;;;1.20;;
2998;SDS011;1509;51.964;7.628;2023-07-31T02:08:15;1.83;;;1.10;;
2998;SDS011;1509;51.964;7.628;2023-07-31T02:10:41;2.47;;;1.20;;
2998;SDS011;1509;51.964;7.628;2023-07-31T02:13:07;1.90;;;1.30;;
2998;SDS011;1509;51.964;7.628;2023-07-31T02:15:32;2.70;;;1.47;;
2998;SDS011;1509;51.964;7.628;2023-07-31T02:17:58;3.20;;;1.40;;
2998;SDS011;1509;51.964;7.628;2023-07-31T02:20:24;3.17;;;1.70;;
2998;SDS011;1509;51.964;7.628;2023-07-31T02:22:49;3.10;;;2.00;;
2998;SDS011;1509;51.964;7.628;2023-07-31T02:25:15;3.67;;;2.70;;
2998;SDS011;1509;51.964;7.628;2023-07-31T02:27:41;3.40;;;2.63;;
2998;SDS011;1509;51.964;7.628;2023-07-31T02:30:07;6.73;;;3.90;;
2998;SDS011;1509;51.964;7.628;2023-07-31T02:32:33;15.03;;;4.20;;
2998;SDS011;1509;51.964;7.628;2023-07-31T02:34:58;9.40;;;5.97;;
2998;SDS011;1509;51.964;7.628;2023-07-31T02:37:24;15.70;;;7.23;;
2998;SDS011;1509;51.964;7.628;2023-07-31T02:39:50;14.37;;;7.50;;
2998;SDS011;1509;51.964;7.628;2023-07-31T02:42:16;16.87;;;9.40;;
2998;SDS011;1509;51.964;7.628;2023-07-31T02:44:41;28.93;;;12.40;;
2998;SDS011;1509;51.964;7.628;2023-07-31T02:47:07;23.00;;;10.23;;
2998;SDS011;1509;51.964;7.628;2023-07-31T02:49:32;26.50;;;10.00;;
2998;SDS011;1509;51.964;7.628;2023-07-31T02:51:58;19.30;;;10.80;;
2998;SDS011;1509;51.964;7.628;2023-07-31T02:54:24;22.67;;;11.37;;
2998;SDS011;1509;51.964;7.628;2023-07-31T02:56:49;30.30;;;11.97;;
2998;SDS011;1509;51.964;7.628;2023-07-31T02:59:15;26.77;;;11.33;;
2998;SDS011;1509;51.964;7.628;2023-07-31T03:01:41;30.27;;;12.03;;
2998;SDS011;1509;51.964;7.628;2023-07-31T03:04:07;23.77;;;11.67;;
2998;SDS011;1509;51.964;7.628;2023-07-31T03:06:32;31.13;;;11.63;;
2998;SDS011;1509;51.964;7.628;2023-07-31T03:08:58;19.93;;;11.93;;
2998;SDS011;1509;51.964;7.628;2023-07-31T03:11:23;23.13;;;12.90;;
2998;SDS011;1509;51.964;7.628;2023-07-31T03:13:49;24.60;;;12.10;;
2998;SDS011;1509;51.964;7.628;2023-07-31T03:16:15;21.03;;;11.63;;
2998;SDS011;1509;51.964;7.628;2023-07-31T03:18:40;27.73;;;11.43;;
2998;SDS011;1509;51.964;7.628;2023-07-31T03:21:06;22.40;;;10.67;;
2998;SDS011;1509;51.964;7.628;2023-07-31T03:23:31;20.60;;;12.17;;
2998;SDS011;1509;51.964;7.628;2023-07-31T03:28:23;21.97;;;10.00;;
2998;SDS011;1509;51.964;7.628;2023-07-31T03:30:49;23.97;;;10.47;;
2998;SDS011;1509;51.964;7.628;2023-07-31T03:33:15;26.83;;;10.43;;
2998;SDS011;1509;51.964;7.628;2023-07-31T03:35:41;22.23;;;11.00;;
2998;SDS011;1509;51.964;7.628;2023-07-31T03:38:06;15.60;;;8.57;;
2998;SDS011;1509;51.964;7.628;2023-07-31T03:40:32;22.83;;;10.20;;
2998;SDS011;1509;51.964;7.628;2023-07-31T03:42:58;18.23;;;9.50;;
2998;SDS011;1509;51.964;7.628;2023-07-31T03:45:23;19.20;;;9.50;;
2998;SDS011;1509;51.964;7.628;2023-07-31T03:47:49;23.23;;;8.50;;
2998;SDS011;1509;51.964;7.628;2023-07-31T03:50:14;20.60;;;8.80;;
2998;SDS011;1509;51.964;7.628;2023-07-31T03:52:40;18.43;;;9.10;;
2998;SDS011;1509;51.964;7.628;2023-07-31T03:55:06;19.00;;;8.70;;
2998;SDS011;1509;51.964;7.628;2023-07-31T03:57:32;17.33;;;9.40;;
2998;SDS011;1509;51.964;7.628;2023-07-31T03:59:58;21.17;;;9.10;;
2998;SDS011;1509;51.964;7.628;2023-07-31T04:02:26;22.33;;;8.80;;
2998;SDS011;1509;51.964;7.628;2023-07-31T04:04:52;20.73;;;8.97;;
2998;SDS011;1509;51.964;7.628;2023-07-31T04:07:18;17.93;;;9.70;;
2998;SDS011;1509;51.964;7.628;2023-07-31T04:09:43;21.57;;;10.40;;
2998;SDS011;1509;51.964;7.628;2023-07-31T04:12:09;17.80;;;8.57;;
2998;SDS011;1509;51.964;7.628;2023-07-31T04:14:34;20.90;;;9.90;;
2998;SDS011;1509;51.964;7.628;2023-07-31T04:17:00;23.40;;;9.23;;
2998;SDS011;1509;51.964;7.628;2023-07-31T04:19:25;22.70;;;8.80;;
2998;SDS011;1509;51.964;7.628;2023-07-31T04:21:51;22.23;;;9.40;;
2998;SDS011;1509;51.964;7.628;2023-07-31T04:24:16;21.07;;;8.93;;
2998;SDS011;1509;51.964;7.628;2023-07-31T04:26:49;17.90;;;8.33;;
2998;SDS011;1509;51.964;7.628;2023-07-31T04:29:17;21.30;;;7.77;;
2998;SDS011;1509;51.964;7.628;2023-07-31T04:31:43;20.27;;;9.73;;
2998;SDS011;1509;51.964;7.628;2023-07-31T04:34:09;16.03;;;7.43;;
2998;SDS011;1509;51.964;7.628;2023-07-31T04:36:34;19.20;;;7.00;;
2998;SDS011;1509;51.964;7.628;2023-07-31T04:39:00;19.33;;;7.23;;
2998;SDS011;1509;51.964;7.628;2023-07-31T04:41:26;17.50;;;6.57;;
2998;SDS011;1509;51.964;7.628;2023-07-31T04:43:52;18.30;;;6.10;;
2998;SDS011;1509;51.964;7.628;2023-07-31T04:46:17;12.67;;;6.30;;
2998;SDS011;1509;51.964;7.628;2023-07-31T04:48:43;16.17;;;7.43;;
2998;SDS011;1509;51.964;7.628;2023-07-31T04:51:09;16.27;;;7.10;;
2998;SDS011;1509;51.964;7.628;2023-07-31T04:53:34;16.87;;;7.30;;
2998;SDS011;1509;51.964;7.628;2023-07-31T04:56:00;10.80;;;5.57;;
2998;SDS011;1509;51.964;7.628;2023-07-31T04:58:26;12.90;;;5.57;;
2998;SDS011;1509;51.964;7.628;2023-07-31T05:00:52;13.23;;;5.83;;
2998;SDS011;1509;51.964;7.628;2023-07-31T05:03:17;20.90;;;6.37;;
2998;SDS011;1509;51.964;7.628;2023-07-31T05:05:43;9.43;;;5.27;;
2998;SDS011;1509;51.964;7.628;2023-07-31T05:08:08;10.20;;;5.60;;
2998;SDS011;1509;51.964;7.628;2023-07-31T05:10:37;13.53;;;6.10;;
2998;SDS011;1509;51.964;7.628;2023-07-31T05:13:02;19.50;;;5.77;;
2998;SDS011;1509;51.964;7.628;2023-07-31T05:15:28;13.73;;;6.60;;
2998;SDS011;1509;51.964;7.628;2023-07-31T05:17:54;14.00;;;6.90;;
2998;SDS011;1509;51.964;7.628;2023-07-31T05:20:20;17.00;;;6.40;;
2998;SDS011;1509;51.964;7.628;2023-07-31T05:22:46;18.43;;;6.17;;
2998;SDS011;1509;51.964;7.628;2023-07-31T05:25:11;16.83;;;7.57;;
2998;SDS011;1509;51.964;7.628;2023-07-31T05:27:37;9.50;;;5.60;;
2998;SDS011;1509;51.964;7.628;2023-07-31T05:30:03;19.97;;;6.63;;
2998;SDS011;1509;51.964;7.628;2023-07-31T05:32:29;15.73;;;5.97;;
2998;SDS011;1509;51.964;7.628;2023-07-31T05:34:54;13.70;;;6.37;;
2998;SDS011;1509;51.964;7.628;2023-07-31T05:37:20;9.10;;;5.10;;
2998;SDS011;1509;51.964;7.628;2023-07-31T05:39:46;9.73;;;5.63;;
2998;SDS011;1509;51.964;7.628;2023-07-31T05:42:12;12.10;;;6.10;;
2998;SDS011;1509;51.964;7.628;2023-07-31T05:44:37;15.70;;;6.50;;
2998;SDS011;1509;51.964;7.628;2023-07-31T05:47:03;18.30;;;5.90;;
2998;SDS011;1509;51.964;7.628;2023-07-31T05:49:29;10.70;;;5.70;;
2998;SDS011;1509;51.964;7.628;2023-07-31T05:51:55;12.50;;;5.73;;
2998;SDS011;1509;51.964;7.628;2023-07-31T05:54:20;14.80;;;6.17;;
2998;SDS011;1509;51.964;7.628;2023-07-31T05:56:46;16.23;;;6.00;;
2998;SDS011;1509;51.964;7.628;2023-07-31T05:59:12;17.20;;;6.30;;
2998;SDS011;1509;51.964;7.628;2023-07-31T06:01:38;10.77;;;5.80;;
2998;SDS011;1509;51.964;7.628;2023-07-31T06:04:04;12.37;;;5.30;;
2998;SDS011;1509;51.964;7.628;2023-07-31T06:06:29;10.73;;;5.63;;
2998;SDS011;1509;51.964;7.628;2023-07-31T06:08:55;13.27;;;6.00;;
2998;SDS011;1509;51.964;7.628;2023-07-31T06:11:21;14.93;;;6.10;;
2998;SDS011;1509;51.964;7.628;2023-07-31T06:13:46;10.00;;;6.30;;
2998;SDS011;1509;51.964;7.628;2023-07-31T06:16:14;12.70;;;6.17;;
2998;SDS011;1509;51.964;7.628;2023-07-31T06:18:40;13.70;;;5.60;;
2998;SDS011;1509;51.964;7.628;2023-07-31T06:21:06;16.47;;;5.67;;
2998;SDS011;1509;51.964;7.628;2023-07-31T06:23:32;27.27;;;6.63;;
2998;SDS011;1509;51.964;7.628;2023-07-31T06:25:58;9.73;;;5.50;;
2998;SDS011;1509;51.964;7.628;2023-07-31T06:28:27;11.30;;;6.33;;
2998;SDS011;1509;51.964;7.628;2023-07-31T06:30:54;10.87;;;7.40;;
2998;SDS011;1509;51.964;7.628;2023-07-31T06:33:20;13.20;;;5.70;;
2998;SDS011;1509;51.964;7.628;2023-07-31T06:35:45;8.67;;;5.57;;
2998;SDS011;1509;51.964;7.628;2023-07-31T06:38:11;15.27;;;5.93;;
2998;SDS011;1509;51.964;7.628;2023-07-31T06:40:36;16.70;;;6.77;;
2998;SDS011;1509;51.964;7.628;2023-07-31T06:43:02;9.23;;;5.30;;
2998;SDS011;1509;51.964;7.628;2023-07-31T06:45:34;14.17;;;5.27;;
2998;SDS011;1509;51.964;7.628;2023-07-31T06:48:01;11.13;;;5.80;;
2998;SDS011;1509;51.964;7.628;2023-07-31T06:50:30;24.23;;;6.50;;
2998;SDS011;1509;51.964;7.628;2023-07-31T06:52:56;14.63;;;6.17;;
2998;SDS011;1509;51.964;7.628;2023-07-31T06:55:22;10.90;;;5.67;;
2998;SDS011;1509;51.964;7.628;2023-07-31T06:57:49;13.40;;;6.17;;
2998;SDS011;1509;51.964;7.628;2023-07-31T07:00:16;17.63;;;6.13;;
2998;SDS011;1509;51.964;7.628;2023-07-31T07:02:42;13.00;;;6.70;;
2998;SDS011;1509;51.964;7.628;2023-07-31T07:05:08;13.57;;;6.50;;
2998;SDS011;1509;51.964;7.628;2023-07-31T07:07:34;16.33;;;6.93;;
2998;SDS011;1509;51.964;7.628;2023-07-31T07:10:00;12.30;;;6.30;;
2998;SDS011;1509;51.964;7.628;2023-07-31T07:12:28;22.27;;;6.70;;
2998;SDS011;1509;51.964;7.628;2023-07-31T07:14:55;11.90;;;6.33;;
2998;SDS011;1509;51.964;7.628;2023-07-31T07:17:20;13.70;;;6.07;;
2998;SDS011;1509;51.964;7.628;2023-07-31T07:19:47;18.97;;;8.30;;
2998;SDS011;1509;51.964;7.628;2023-07-31T07:22:13;10.47;;;7.30;;
2998;SDS011;1509;51.964;7.628;2023-07-31T07:24:39;15.70;;;7.77;;
2998;SDS011;1509;51.964;7.628;2023-07-31T07:27:04;18.40;;;7.60;;
2998;SDS011;1509;51.964;7.628;2023-07-31T07:29:30;16.70;;;7.23;;
2998;SDS011;1509;51.964;7.628;2023-07-31T07:31:56;12.73;;;7.43;;
2998;SDS011;1509;51.964;7.628;2023-07-31T07:34:27;18.57;;;8.03;;
2998;SDS011;1509;51.964;7.628;2023-07-31T07:36:53;15.17;;;7.10;;
2998;SDS011;1509;51.964;7.628;2023-07-31T07:39:19;13.73;;;8.47;;
2998;SDS011;1509;51.964;7.628;2023-07-31T07:41:45;12.43;;;8.70;;
2998;SDS011;1509;51.964;7.628;2023-07-31T07:44:11;12.50;;;7.73;;
2998;SDS011;1509;51.964;7.628;2023-07-31T07:46:39;17.40;;;8.77;;
2998;SDS011;1509;51.964;7.628;2023-07-31T07:49:05;14.53;;;9.43;;
2998;SDS011;1509;51.964;7.628;2023-07-31T07:51:31;13.97;;;8.40;;
2998;SDS011;1509;51.964;7.628;2023-07-31T07:53:57;15.40;;;8.53;;
2998;SDS011;1509;51.964;7.628;2023-07-31T07:56:23;12.40;;;8.67;;
2998;SDS011;1509;51.964;7.628;2023-07-31T07:58:50;11.73;;;8.13;;
2998;SDS011;1509;51.964;7.628;2023-07-31T08:01:16;12.87;;;7.83;;
2998;SDS011;1509;51.964;7.628;2023-07-31T08:03:42;10.77;;;8.20;;
2998;SDS011;1509;51.964;7.628;2023-07-31T08:06:07;11.33;;;7.50;;
2998;SDS011;1509;51.964;7.628;2023-07-31T08:08:34;12.27;;;7.80;;
2998;SDS011;1509;51.964;7.628;2023-07-31T08:11:00;10.30;;;7.73;;
2998;SDS011;1509;51.964;7.628;2023-07-31T08:13:26;13.10;;;7.97;;
2998;SDS011;1509;51.964;7.628;2023-07-31T08:15:52;12.67;;;8.10;;
2998;SDS011;1509;51.964;7.628;2023-07-31T08:18:17;13.73;;;8.00;;
2998;SDS011;1509;51.964;7.628;2023-07-31T08:20:43;10.93;;;7.80;;
2998;SDS011;1509;51.964;7.628;2023-07-31T08:23:09;8.90;;;7.20;;
2998;SDS011;1509;51.964;7.628;2023-07-31T08:25:35;10.90;;;7.97;;
2998;SDS011;1509;51.964;7.628;2023-07-31T08:28:01;12.40;;;8.30;;
2998;SDS011;1509;51.964;7.628;2023-07-31T08:30:27;8.50;;;7.47;;
2998;SDS011;1509;51.964;7.628;2023-07-31T08:32:53;9.93;;;8.17;;
2998;SDS011;1509;51.964;7.628;2023-07-31T08:35:19;11.20;;;7.90;;
2998;SDS011;1509;51.964;7.628;2023-07-31T08:37:44;10.93;;;8.13;;
2998;SDS011;1509;51.964;7.628;2023-07-31T08:40:10;10.53;;;8.53;;
2998;SDS011;1509;51.964;7.628;2023-07-31T08:42:44;16.70;;;8.20;;
2998;SDS011;1509;51.964;7.628;2023-07-31T08:45:17;12.10;;;7.23;;
2998;SDS011;1509;51.964;7.628;2023-07-31T08:47:45;9.83;;;6.80;;
2998;SDS011;1509;51.964;7.628;2023-07-31T08:50:16;8.60;;;6.40;;
2998;SDS011;1509;51.964;7.628;2023-07-31T08:52:44;10.77;;;7.43;;
2998;SDS011;1509;51.964;7.628;2023-07-31T08:55:11;11.60;;;7.47;;
2998;SDS011;1509;51.964;7.628;2023-07-31T08:57:37;8.50;;;6.07;;
2998;SDS011;1509;51.964;7.628;2023-07-31T09:00:04;8.90;;;7.07;;
2998;SDS011;1509;51.964;7.628;2023-07-31T09:02:45;8.60;;;6.27;;
2998;SDS011;1509;51.964;7.628;2023-07-31T09:05:35;7.23;;;6.20;;
2998;SDS011;1509;51.964;7.628;2023-07-31T09:08:07;11.53;;;6.90;;
2998;SDS011;1509;51.964;7.628;2023-07-31T09:10:35;8.37;;;6.53;;
2998;SDS011;1509;51.964;7.628;2023-07-31T09:13:00;7.87;;;6.00;;
2998;SDS011;1509;51.964;7.628;2023-07-31T09:15:27;7.93;;;5.90;;
2998;SDS011;1509;51.964;7.628;2023-07-31T09:17:58;7.90;;;5.60;;
2998;SDS011;1509;51.964;7.628;2023-07-31T09:20:28;9.73;;;6.80;;
2998;SDS011;1509;51.964;7.628;2023-07-31T09:22:53;9.00;;;6.67;;
2998;SDS011;1509;51.964;7.628;2023-07-31T09:25:24;10.20;;;7.80;;
2998;SDS011;1509;51.964;7.628;2023-07-31T09:27:53;10.17;;;7.20;;
2998;SDS011;1509;51.964;7.628;2023-07-31T09:30:20;10.37;;;6.43;;
2998;SDS011;1509;51.964;7.628;2023-07-31T09:32:47;11.23;;;7.50;;
2998;SDS011;1509;51.964;7.628;2023-07-31T09:35:18;10.00;;;8.00;;
2998;SDS011;1509;51.964;7.628;2023-07-31T09:37:57;10.13;;;7.73;;
2998;SDS011;1509;51.964;7.628;2023-07-31T09:40:31;11.60;;;7.03;;
2998;SDS011;1509;51.964;7.628;2023-07-31T09:43:01;9.73;;;7.43;;
2998;SDS011;1509;51.964;7.628;2023-07-31T09:45:36;9.93;;;8.03;;
2998;SDS011;1509;51.964;7.628;2023-07-31T09:48:03;10.30;;;7.33;;
2998;SDS011;1509;51.964;7.628;2023-07-31T09:50:31;10.57;;;7.87;;
2998;SDS011;1509;51.964;7.628;2023-07-31T09:52:57;11.83;;;7.90;;
2998;SDS011;1509;51.964;7.628;2023-07-31T09:55:23;9.07;;;7.00;;
2998;SDS011;1509;51.964;7.628;2023-07-31T09:57:49;11.20;;;8.17;;
2998;SDS011;1509;51.964;7.628;2023-07-31T10:00:16;7.13;;;6.40;;
2998;SDS011;1509;51.964;7.628;2023-07-31T10:02:45;9.30;;;7.57;;
2998;SDS011;1509;51.964;7.628;2023-07-31T10:05:12;8.97;;;6.33;;
2998;SDS011;1509;51.964;7.628;2023-07-31T10:07:40;10.40;;;7.40;;
2998;SDS011;1509;51.964;7.628;2023-07-31T10:10:15;9.37;;;6.20;;
2998;SDS011;1509;51.964;7.628;2023-07-31T10:12:41;10.30;;;7.10;;
2998;SDS011;1509;51.964;7.628;2023-07-31T10:15:08;7.80;;;6.20;;
2998;SDS011;1509;51.964;7.628;2023-07-31T10:17:35;7.20;;;5.90;;
2998;SDS011;1509;51.964;7.628;2023-07-31T10:20:02;7.20;;;5.73;;
2998;SDS011;1509;51.964;7.628;2023-07-31T10:22:30;7.80;;;6.00;;
2998;SDS011;1509;51.964;7.628;2023-07-31T10:24:57;7.13;;;5.40;;
2998;SDS011;1509;51.964;7.628;2023-07-31T10:27:24;10.50;;;5.97;;
2998;SDS011;1509;51.964;7.628;2023-07-31T10:29:50;6.60;;;5.57;;
2998;SDS011;1509;51.964;7.628;2023-07-31T10:32:17;9.13;;;6.90;;
2998;SDS011;1509;51.964;7.628;2023-07-31T10:34:43;8.00;;;6.40;;
2998;SDS011;1509;51.964;7.628;2023-07-31T10:42:38;12.73;;;6.67;;
2998;SDS011;1509;51.964;7.628;2023-07-31T10:45:12;11.50;;;7.60;;
2998;SDS011;1509;51.964;7.628;2023-07-31T10:47:45;8.50;;;6.87;;
2998;SDS011;1509;51.964;7.628;2023-07-31T10:50:20;8.43;;;7.03;;
2998;SDS011;1509;51.964;7.628;2023-07-31T10:52:51;9.97;;;7.97;;
2998;SDS011;1509;51.964;7.628;2023-07-31T10:55:25;12.00;;;7.60;;
2998;SDS011;1509;51.964;7.628;2023-07-31T10:57:55;7.87;;;7.07;;
2998;SDS011;1509;51.964;7.628;2023-07-31T11:00:28;9.80;;;7.10;;
2998;SDS011;1509;51.964;7.628;2023-07-31T11:02:58;11.10;;;9.00;;
2998;SDS011;1509;51.964;7.628;2023-07-31T11:08:13;9.43;;;8.20;;
2998;SDS011;1509;51.964;7.628;2023-07-31T11:10:42;9.17;;;7.40;;
2998;SDS011;1509;51.964;7.628;2023-07-31T11:13:09;10.80;;;8.17;;
2998;SDS011;1509;51.964;7.628;2023-07-31T11:15:35;10.10;;;7.93;;
2998;SDS011;1509;51.964;7.628;2023-07-31T11:18:01;9.70;;;7.77;;
2998;SDS011;1509;51.964;7.628;2023-07-31T11:20:31;12.87;;;9.60;;
2998;SDS011;1509;51.964;7.628;2023-07-31T11:22:58;10.07;;;8.07;;
2998;SDS011;1509;51.964;7.628;2023-07-31T11:25:31;10.40;;;8.63;;
2998;SDS011;1509;51.964;7.628;2023-07-31T11:27:57;12.47;;;9.33;;
2998;SDS011;1509;51.964;7.628;2023-07-31T11:30:30;9.00;;;8.10;;
2998;SDS011;1509;51.964;7.628;2023-07-31T11:32:56;11.00;;;7.83;;
2998;SDS011;1509;51.964;7.628;2023-07-31T11:35:22;10.80;;;7.33;;
2998;SDS011;1509;51.964;7.628;2023-07-31T11:37:49;8.00;;;6.77;;
2998;SDS011;1509;51.964;7.628;2023-07-31T11:40:15;9.33;;;7.40;;
2998;SDS011;1509;51.964;7.628;2023-07-31T11:42:44;9.37;;;8.33;;
2998;SDS011;1509;51.964;7.628;2023-07-31T11:45:10;9.27;;;8.17;;
2998;SDS011;1509;51.964;7.628;2023-07-31T11:47:36;11.80;;;8.33;;
2998;SDS011;1509;51.964;7.628;2023-07-31T11:50:06;11.17;;;8.80;;
2998;SDS011;1509;51.964;7.628;2023-07-31T11:52:37;10.90;;;8.27;;
2998;SDS011;1509;51.964;7.628;2023-07-31T11:55:06;11.80;;;9.73;;
2998;SDS011;1509;51.964;7.628;2023-07-31T11:57:34;12.37;;;10.50;;
2998;SDS011;1509;51.964;7.628;2023-07-31T12:00:02;12.63;;;9.53;;
2998;SDS011;1509;51.964;7.628;2023-07-31T12:02:28;13.93;;;10.63;;
2998;SDS011;1509;51.964;7.628;2023-07-31T12:04:54;18.80;;;11.97;;
2998;SDS011;1509;51.964;7.628;2023-07-31T12:07:23;13.80;;;11.23;;
2998;SDS011;1509;51.964;7.628;2023-07-31T12:09:53;15.97;;;11.73;;
2998;SDS011;1509;51.964;7.628;2023-07-31T12:12:29;20.80;;;13.47;;
2998;SDS011;1509;51.964;7.628;2023-07-31T12:14:55;19.30;;;13.73;;
2998;SDS011;1509;51.964;7.628;2023-07-31T12:17:20;19.90;;;14.47;;
2998;SDS011;1509;51.964;7.628;2023-07-31T12:19:48;18.00;;;14.37;;
2998;SDS011;1509;51.964;7.628;2023-07-31T12:22:14;21.37;;;14.50;;
2998;SDS011;1509;51.964;7.628;2023-07-31T12:24:42;17.73;;;13.10;;
2998;SDS011;1509;51.964;7.628;2023-07-31T12:27:13;15.80;;;11.70;;
2998;SDS011;1509;51.964;7.628;2023-07-31T12:29:40;13.30;;;11.63;;
2998;SDS011;1509;51.964;7.628;2023-07-31T12:32:23;17.83;;;12.47;;
2998;SDS011;1509;51.964;7.628;2023-07-31T12:34:52;18.80;;;12.20;;
2998;SDS011;1509;51.964;7.628;2023-07-31T12:37:18;13.40;;;10.10;;
2998;SDS011;1509;51.964;7.628;2023-07-31T12:39:45;12.47;;;10.20;;
2998;SDS011;1509;51.964;7.628;2023-07-31T12:42:13;10.17;;;8.47;;
2998;SDS011;1509;51.964;7.628;2023-07-31T12:44:42;10.30;;;8.20;;
2998;SDS011;1509;51.964;7.628;2023-07-31T12:47:10;10.60;;;7.60;;
2998;SDS011;1509;51.964;7.628;2023-07-31T12:49:35;8.50;;;7.37;;
2998;SDS011;1509;51.964;7.628;2023-07-31T12:52:01;8.97;;;7.20;;
2998;SDS011;1509;51.964;7.628;2023-07-31T12:54:27;8.37;;;6.73;;
2998;SDS011;1509;51.964;7.628;2023-07-31T12:56:58;8.03;;;6.50;;
2998;SDS011;1509;51.964;7.628;2023-07-31T12:59:24;8.40;;;6.10;;
2998;SDS011;1509;51.964;7.628;2023-07-31T13:01:49;12.23;;;6.83;;
2998;SDS011;1509;51.964;7.628;2023-07-31T13:04:15;8.23;;;6.20;;
2998;SDS011;1509;51.964;7.628;2023-07-31T13:06:40;9.90;;;6.43;;
2998;SDS011;1509;51.964;7.628;2023-07-31T13:09:06;8.77;;;7.07;;
2998;SDS011;1509;51.964;7.628;2023-07-31T13:11:32;8.57;;;6.30;;
2998;SDS011;1509;51.964;7.628;2023-07-31T13:13:57;7.50;;;6.40;;
2998;SDS011;1509;51.964;7.628;2023-07-31T13:16:23;10.20;;;6.40;;
2998;SDS011;1509;51.964;7.628;2023-07-31T13:18:48;6.77;;;5.90;;
2998;SDS011;1509;51.964;7.628;2023-07-31T13:21:16;9.40;;;6.53;;
2998;SDS011;1509;51.964;7.628;2023-07-31T13:23:42;9.80;;;7.57;;
2998;SDS011;1509;51.964;7.628;2023-07-31T13:26:07;6.63;;;5.83;;
2998;SDS011;1509;51.964;7.628;2023-07-31T13:28:33;8.40;;;6.60;;
2998;SDS011;1509;51.964;7.628;2023-07-31T13:30:59;8.97;;;5.90;;
2998;SDS011;1509;51.964;7.628;2023-07-31T13:33:24;11.03;;;7.27;;
2998;SDS011;1509;51.964;7.628;2023-07-31T13:35:50;8.70;;;6.13;;
2998;SDS011;1509;51.964;7.628;2023-07-31T13:38:16;7.00;;;6.30;;
2998;SDS011;1509;51.964;7.628;2023-07-31T13:40:41;8.70;;;6.87;;
2998;SDS011;1509;51.964;7.628;2023-07-31T13:43:07;9.70;;;7.00;;
2998;SDS011;1509;51.964;7.628;2023-07-31T13:45:32;7.97;;;6.90;;
2998;SDS011;1509;51.964;7.628;2023-07-31T13:47:58;7.80;;;6.70;;
2998;SDS011;1509;51.964;7.628;2023-07-31T13:50:23;9.23;;;7.27;;
2998;SDS011;1509;51.964;7.628;2023-07-31T13:52:50;8.37;;;7.33;;
2998;SDS011;1509;51.964;7.628;2023-07-31T13:55:15;9.80;;;6.60;;
2998;SDS011;1509;51.964;7.628;2023-07-31T13:57:41;8.03;;;6.57;;
2998;SDS011;1509;51.964;7.628;2023-07-31T14:00:06;7.20;;;6.50;;
2998;SDS011;1509;51.964;7.628;2023-07-31T14:02:33;8.30;;;6.20;;
2998;SDS011;1509;51.964;7.628;2023-07-31T14:04:58;7.10;;;6.37;;
2998;SDS011;1509;51.964;7.628;2023-07-31T14:07:26;7.60;;;6.63;;
2998;SDS011;1509;51.964;7.628;2023-07-31T14:09:52;8.13;;;7.03;;
2998;SDS011;1509;51.964;7.628;2023-07-31T14:12:17;8.03;;;6.57;;
2998;SDS011;1509;51.964;7.628;2023-07-31T14:14:43;9.23;;;7.57;;
2998;SDS011;1509;51.964;7.628;2023-07-31T14:17:08;7.40;;;6.60;;
2998;SDS011;1509;51.964;7.628;2023-07-31T14:19:34;6.97;;;6.27;;
2998;SDS011;1509;51.964;7.628;2023-07-31T14:22:00;7.77;;;6.90;;
2998;SDS011;1509;51.964;7.628;2023-07-31T14:24:26;7.20;;;6.00;;
2998;SDS011;1509;51.964;7.628;2023-07-31T14:26:51;6.97;;;5.37;;
2998;SDS011;1509;51.964;7.628;2023-07-31T14:29:17;7.63;;;6.37;;
2998;SDS011;1509;51.964;7.628;2023-07-31T14:31:45;7.00;;;5.83;;
2998;SDS011;1509;51.964;7.628;2023-07-31T14:34:11;6.47;;;5.27;;
2998;SDS011;1509;51.964;7.628;2023-07-31T14:36:37;6.63;;;5.83;;
2998;SDS011;1509;51.964;7.628;2023-07-31T14:39:02;6.00;;;5.40;;
2998;SDS011;1509;51.964;7.628;2023-07-31T14:41:28;7.80;;;6.53;;
2998;SDS011;1509;51.964;7.628;2023-07-31T14:43:53;6.27;;;5.30;;
2998;SDS011;1509;51.964;7.628;2023-07-31T14:46:19;7.63;;;5.93;;
2998;SDS011;1509;51.964;7.628;2023-07-31T14:48:44;6.53;;;5.93;;
2998;SDS011;1509;51.964;7.628;2023-07-31T14:51:10;6.53;;;5.93;;
2998;SDS011;1509;51.964;7.628;2023-07-31T14:53:36;7.50;;;6.80;;
2998;SDS011;1509;51.964;7.628;2023-07-31T14:56:01;7.83;;;7.03;;
2998;SDS011;1509;51.964;7.628;2023-07-31T14:58:27;8.33;;;7.53;;
2998;SDS011;1509;51.964;7.628;2023-07-31T15:00:53;11.40;;;7.47;;
2998;SDS011;1509;51.964;7.628;2023-07-31T15:03:18;11.20;;;8.47;;
2998;SDS011;1509;51.964;7.628;2023-07-31T15:05:44;11.20;;;8.20;;
2998;SDS011;1509;51.964;7.628;2023-07-31T15:08:10;10.57;;;9.37;;
2998;SDS011;1509;51.964;7.628;2023-07-31T15:10:35;10.60;;;9.40;;
2998;SDS011;1509;51.964;7.628;2023-07-31T15:13:01;11.33;;;9.80;;
2998;SDS011;1509;51.964;7.628;2023-07-31T15:15:27;12.47;;;10.07;;
2998;SDS011;1509;51.964;7.628;2023-07-31T15:17:52;14.70;;;8.93;;
2998;SDS011;1509;51.964;7.628;2023-07-31T15:20:19;9.63;;;8.63;;